Terminal Aerodrome Forecast
Issued by NWS Grand Rapids, MI

Home | Current Version | Previous Version | Text Only | Print | Product List | Glossary On
Versions: 1 2 3 4 5 6 7 8 9 10 11 12 13 14 15
000
FTUS43 KGRR 202321
TAFGRR
TAF
KGRR 202321Z 2100/2124 22006KT P6SM BKN035 BKN220
     FM210200 30004KT P6SM SCT250
     FM210900 00000KT 1 1/2SM BR SKC
     FM211200 00000KT 4SM BR SKC
     FM211500 19005KT P6SM SCT025=

USA.gov is the U.S. government's official web portal to all federal, state and local government web resources and services.